Time;durP1;ratioP1;P1;durP2;ratioP2;P2;SDS_P1;SDS_P2;PMS_P1;PMS_P2;Temp;Humidity;BMP_temperature;BMP_pressure;BME280_temperature;BME280_humidity;BME280_pressure;Samples;Min_cycle;Max_cycle;Signal;HPM_P1;HPM_P2
2021/08/31 00:00:28;;;;;;;;;12.25;12.00;;;;;22.62;51.47;101792.13;5059301;28;45446;-56
2021/08/31 00:02:53;;;;;;;;;8.75;7.75;;;;;22.61;51.32;101785.13;5059156;28;45959;-53
2021/08/31 00:05:19;;;;;;;;;12.25;11.00;;;;;22.61;51.40;101788.63;5059146;28;45383;-54
2021/08/31 00:07:45;;;;;;;;;18.25;11.00;;;;;22.61;51.26;101787.78;5058881;28;46501;-55
2021/08/31 00:10:12;;;;;;;;;13.25;13.25;;;;;22.60;51.06;101783.44;5059255;28;45400;-56
2021/08/31 00:12:38;;;;;;;;;11.00;10.00;;;;;22.61;51.33;101785.97;5059031;28;45287;-55
2021/08/31 00:15:06;;;;;;;;;10.50;9.75;;;;;22.61;51.41;101779.84;5059356;28;45771;-58
2021/08/31 00:17:31;;;;;;;;;12.75;11.00;;;;;22.60;51.40;101771.06;5058599;28;46088;-56
2021/08/31 00:19:57;;;;;;;;;10.50;10.25;;;;;22.61;51.41;101782.50;5058970;28;45779;-53
2021/08/31 00:22:22;;;;;;;;;10.75;9.25;;;;;22.59;51.14;101779.94;5059079;28;45424;-58
2021/08/31 00:24:47;;;;;;;;;9.50;9.50;;;;;22.61;51.22;101785.13;5059051;28;45779;-56
2021/08/31 00:27:13;;;;;;;;;10.50;10.50;;;;;22.60;51.16;101779.00;5058725;28;46472;-58
2021/08/31 00:29:38;;;;;;;;;11.50;9.75;;;;;22.60;50.83;101773.69;5040380;28;45533;-54
2021/08/31 00:32:04;;;;;;;;;9.75;9.25;;;;;22.59;51.33;101781.72;5059070;28;45355;-56
2021/08/31 00:34:29;;;;;;;;;10.50;10.50;;;;;22.60;51.21;101783.44;5059034;28;45364;-57
2021/08/31 00:36:55;;;;;;;;;10.25;10.00;;;;;22.59;51.07;101776.44;5058523;28;46082;-54
2021/08/31 00:39:20;;;;;;;;;10.50;10.25;;;;;22.58;51.28;101782.66;5058464;28;45305;-62
2021/08/31 00:41:47;;;;;;;;;11.25;9.75;;;;;22.58;51.03;101785.28;5058512;28;45407;-60
2021/08/31 00:44:21;;;;;;;;;8.50;8.50;;;;;22.58;51.21;101782.66;5056856;28;45330;-64
2021/08/31 00:46:49;;;;;;;;;10.25;10.25;;;;;22.54;51.07;101782.78;5058424;28;46449;-61
2021/08/31 00:49:14;;;;;;;;;10.75;10.25;;;;;22.56;51.19;101780.09;5058269;28;45671;-58
2021/08/31 00:51:39;;;;;;;;;11.25;10.00;;;;;22.58;50.85;101782.66;5058476;28;45374;-57
2021/08/31 00:54:05;;;;;;;;;10.50;9.00;;;;;22.58;50.83;101777.34;5058765;28;45150;-59
2021/08/31 00:56:31;;;;;;;;;10.75;9.50;;;;;22.58;50.97;101780.88;5058339;28;46620;-56
2021/08/31 00:58:56;;;;;;;;;10.25;10.00;;;;;22.58;50.91;101774.72;5058127;28;45297;-57
2021/08/31 01:01:22;;;;;;;;;11.25;9.00;;;;;22.56;50.43;101774.81;5058380;28;45388;-56
2021/08/31 01:03:47;;;;;;;;;8.25;8.25;;;;;22.58;51.07;101785.28;5058451;28;45531;-54
2021/08/31 01:06:12;;;;;;;;;9.75;9.25;;;;;22.53;50.97;101775.81;5040004;28;45368;-52
2021/08/31 01:08:38;;;;;;;;;9.75;8.75;;;;;22.58;51.04;101793.22;5058355;28;45403;-53
2021/08/31 01:11:04;;;;;;;;;9.50;9.50;;;;;22.57;51.12;101783.56;5058268;28;45332;-52
2021/08/31 01:13:34;;;;;;;;;11.25;9.00;;;;;22.53;51.01;101785.50;5058503;28;45429;-51
2021/08/31 01:15:59;;;;;;;;;9.50;8.25;;;;;22.57;50.85;101783.56;5057980;28;45591;-52
2021/08/31 01:18:27;;;;;;;;;11.50;9.00;;;;;22.54;51.06;101792.50;5057801;28;45360;-52
2021/08/31 01:20:55;;;;;;;;;8.50;8.50;;;;;22.57;50.78;101788.84;5058005;28;45296;-51
2021/08/31 01:23:21;;;;;;;;;8.25;8.25;;;;;22.56;51.11;101785.38;5058105;28;45355;-51
2021/08/31 01:25:47;;;;;;;;;10.00;8.00;;;;;22.56;50.82;101788.00;5057770;28;46349;-56
2021/08/31 01:28:21;;;;;;;;;7.75;7.75;;;;;22.55;50.85;101792.44;5057642;28;45335;-53
2021/08/31 01:30:49;;;;;;;;;9.75;8.75;;;;;22.54;50.78;101792.50;5058107;28;45437;-55
2021/08/31 01:33:14;;;;;;;;;7.75;7.75;;;;;22.54;50.86;101789.88;5057958;28;45551;-54
2021/08/31 01:35:39;;;;;;;;;11.25;10.50;;;;;22.54;50.85;101789.88;5058028;28;45359;-51
2021/08/31 01:38:05;;;;;;;;;11.50;10.00;;;;;22.55;50.99;101784.50;5057663;28;45418;-54
2021/08/31 01:40:31;;;;;;;;;10.00;8.50;;;;;22.54;50.83;101785.44;5057764;28;45304;-56
2021/08/31 01:42:56;;;;;;;;;10.75;8.00;;;;;22.52;50.82;101787.31;5057984;28;45257;-55
2021/08/31 01:45:22;;;;;;;;;6.25;6.25;;;;;22.53;51.01;101782.88;5057442;28;45416;-54
2021/08/31 01:47:47;;;;;;;;;8.75;7.00;;;;;22.54;50.83;101792.50;5056101;28;45415;-60
2021/08/31 01:50:13;;;;;;;;;6.50;6.50;;;;;22.52;50.85;101792.59;5057429;28;45364;-53
2021/08/31 01:52:39;;;;;;;;;8.00;7.75;;;;;22.50;51.20;101789.16;5056997;28;45509;-55
2021/08/31 01:55:05;;;;;;;;;7.00;6.75;;;;;22.52;50.73;101792.59;5056165;28;45371;-52
2021/08/31 01:57:31;;;;;;;;;11.25;9.75;;;;;22.51;50.69;101796.16;5057172;28;45343;-52
2021/08/31 01:59:56;;;;;;;;;9.25;8.50;;;;;22.52;50.82;101797.88;5057313;28;45415;-54
2021/08/31 02:02:22;;;;;;;;;9.00;9.00;;;;;22.51;50.41;101798.81;5057570;28;45593;-52
2021/08/31 02:04:47;;;;;;;;;13.25;10.25;;;;;22.51;50.80;101793.53;5057115;28;45876;-53
2021/08/31 02:07:12;;;;;;;;;9.00;9.00;;;;;22.50;50.82;101797.09;5057486;28;45791;-54
2021/08/31 02:09:38;;;;;;;;;9.25;6.75;;;;;22.50;51.42;101799.75;5057648;28;45219;-58
2021/08/31 02:12:03;;;;;;;;;9.50;7.00;;;;;22.51;50.92;101800.56;5057314;28;45339;-52
2021/08/31 02:14:29;;;;;;;;;9.75;8.00;;;;;22.51;50.73;101796.16;5056816;28;45595;-53
2021/08/31 02:16:54;;;;;;;;;11.50;8.75;;;;;22.51;50.63;101803.22;5056950;28;45388;-55
2021/08/31 02:19:19;;;;;;;;;8.00;7.50;;;;;22.51;50.51;101803.22;5057178;28;45308;-52
2021/08/31 02:21:45;;;;;;;;;8.00;8.00;;;;;22.51;50.79;101805.84;5057276;28;45590;-54
2021/08/31 02:24:10;;;;;;;;;9.25;6.25;;;;;22.51;50.73;101803.22;5057104;28;46534;-49
2021/08/31 02:26:36;;;;;;;;;12.00;8.00;;;;;22.50;50.59;101799.75;5056719;28;45395;-54
2021/08/31 02:29:01;;;;;;;;;7.50;7.50;;;;;22.50;50.55;101802.38;5056986;28;45308;-51
2021/08/31 02:31:27;;;;;;;;;8.50;7.25;;;;;22.51;50.81;101804.09;5057290;28;45344;-52
2021/08/31 02:33:52;;;;;;;;;6.00;6.00;;;;;22.50;51.03;101805.03;5056686;28;45506;-52
2021/08/31 02:36:17;;;;;;;;;7.25;7.25;;;;;22.49;50.67;101800.66;5056575;28;45368;-56
2021/08/31 02:38:43;;;;;;;;;6.25;6.00;;;;;22.50;50.68;101793.59;5057275;28;45490;-52
2021/08/31 02:41:08;;;;;;;;;8.50;7.50;;;;;22.50;50.72;101798.88;5056971;28;45633;-52
2021/08/31 02:43:33;;;;;;;;;8.75;7.75;;;;;22.48;50.84;101787.53;5038542;28;46521;-56
2021/08/31 02:45:59;;;;;;;;;8.00;8.00;;;;;22.48;50.80;101796.31;5056658;28;45332;-55
2021/08/31 02:48:24;;;;;;;;;7.50;7.00;;;;;22.48;50.69;101800.75;5038725;28;45375;-51
2021/08/31 02:50:49;;;;;;;;;7.50;7.50;;;;;22.48;51.01;101801.59;5056994;28;45342;-59
2021/08/31 02:53:15;;;;;;;;;7.00;6.00;;;;;22.48;50.71;101796.31;5056787;28;46374;-50
2021/08/31 02:55:40;;;;;;;;;8.00;7.00;;;;;22.49;50.95;101795.38;5056833;28;45463;-58
2021/08/31 02:58:05;;;;;;;;;6.25;6.25;;;;;22.48;50.36;101796.31;5038437;28;45320;-55
2021/08/31 03:00:32;;;;;;;;;6.25;6.25;;;;;22.48;50.81;101785.75;5056382;28;45274;-64
2021/08/31 03:02:59;;;;;;;;;8.00;8.00;;;;;22.49;50.81;101786.63;5056174;28;46956;-65
2021/08/31 03:05:25;;;;;;;;;7.50;6.50;;;;;22.48;50.81;101787.53;5056025;28;45219;-51
2021/08/31 03:07:52;;;;;;;;;7.50;7.50;;;;;22.47;50.71;101788.47;5056578;28;45278;-60
2021/08/31 03:10:17;;;;;;;;;7.25;6.00;;;;;22.48;50.54;101783.09;5038517;28;45605;-62
2021/08/31 03:12:43;;;;;;;;;8.00;6.75;;;;;22.47;50.68;101778.75;5056406;28;46437;-56
2021/08/31 03:15:08;;;;;;;;;8.50;8.00;;;;;22.48;50.71;101785.75;5056189;28;45366;-51
2021/08/31 03:17:34;;;;;;;;;6.25;6.25;;;;;22.49;50.57;101786.63;5056241;28;45421;-53
2021/08/31 03:19:59;;;;;;;;;6.75;6.75;;;;;22.47;50.39;101791.09;5056426;28;45577;-53
2021/08/31 03:22:25;;;;;;;;;6.25;6.25;;;;;22.48;50.93;101795.47;5056028;28;46619;-53
2021/08/31 03:24:50;;;;;;;;;8.50;7.00;;;;;22.47;50.65;101791.09;5056024;28;45409;-55
2021/08/31 03:27:15;;;;;;;;;7.00;7.00;;;;;22.48;50.62;101792.81;5056475;28;45278;-54
2021/08/31 03:29:41;;;;;;;;;9.50;7.25;;;;;22.48;50.46;101796.31;5038269;28;45382;-52
2021/08/31 03:32:07;;;;;;;;;7.00;7.00;;;;;22.47;50.23;101799.03;5056301;28;46395;-54
2021/08/31 03:34:32;;;;;;;;;6.00;6.00;;;;;22.48;50.69;101795.47;5055959;28;45404;-54
2021/08/31 03:36:58;;;;;;;;;8.50;6.00;;;;;22.48;50.61;101803.41;5056296;28;45384;-56
2021/08/31 03:39:23;;;;;;;;;6.25;5.00;;;;;22.47;50.64;101805.16;5056146;28;45216;-52
2021/08/31 03:41:48;;;;;;;;;8.75;7.00;;;;;22.48;50.62;101806.88;5055709;28;46139;-56
2021/08/31 03:44:14;;;;;;;;;9.00;7.00;;;;;22.44;50.42;101802.66;5056037;28;45269;-50
2021/08/31 03:46:39;;;;;;;;;8.00;7.25;;;;;22.45;50.67;101796.44;5055866;28;45853;-49
2021/08/31 03:49:04;;;;;;;;;8.50;8.50;;;;;22.46;50.33;101808.72;5056058;28;45217;-52
2021/08/31 03:51:30;;;;;;;;;5.25;5.25;;;;;22.44;50.57;101804.47;5055769;28;45400;-52
2021/08/31 03:53:56;;;;;;;;;8.25;8.00;;;;;22.46;50.79;101811.38;5055438;28;50603;-51
2021/08/31 03:56:21;;;;;;;;;6.00;5.25;;;;;22.46;50.72;101805.25;5055825;28;45355;-49
2021/08/31 03:58:47;;;;;;;;;9.50;8.25;;;;;22.46;50.62;101811.38;5055977;28;45879;-53
2021/08/31 04:01:12;;;;;;;;;8.00;5.50;;;;;22.46;50.64;101814.00;5056009;28;45451;-51
2021/08/31 04:03:37;;;;;;;;;7.25;6.00;;;;;22.46;50.25;101814.00;5055846;28;45423;-53
2021/08/31 04:06:03;;;;;;;;;6.25;5.25;;;;;22.46;50.51;101814.00;5055598;28;45944;-53
2021/08/31 04:08:28;;;;;;;;;6.00;6.00;;;;;22.45;50.53;101817.56;5055992;28;45308;-53
2021/08/31 04:10:53;;;;;;;;;7.50;6.00;;;;;22.44;50.53;101815.88;5055474;28;46608;-53
2021/08/31 04:13:19;;;;;;;;;9.25;7.75;;;;;22.45;50.65;101812.28;5055493;28;45387;-51
2021/08/31 04:15:48;;;;;;;;;11.75;7.00;;;;;22.45;50.36;101812.28;5056011;28;45431;-50
2021/08/31 04:18:14;;;;;;;;;8.00;7.50;;;;;22.44;50.40;101809.75;5057368;28;45210;-50
2021/08/31 04:20:39;;;;;;;;;12.50;6.00;;;;;22.46;50.49;101813.16;5058866;28;46131;-52
2021/08/31 04:23:05;;;;;;;;;7.75;7.00;;;;;22.44;50.08;101815.88;5058973;28;45260;-51
2021/08/31 04:25:30;;;;;;;;;10.25;9.00;;;;;22.41;50.26;101813.41;5058486;28;45523;-51
2021/08/31 04:27:55;;;;;;;;;8.75;8.75;;;;;22.44;50.75;101826.44;5059019;28;45196;-52
2021/08/31 04:30:21;;;;;;;;;7.75;7.75;;;;;22.45;50.45;101828.16;5040548;28;47501;-54
2021/08/31 04:32:46;;;;;;;;;11.25;8.75;;;;;22.44;50.49;101829.06;5058938;28;45218;-55
2021/08/31 04:35:11;;;;;;;;;10.00;8.00;;;;;22.44;50.32;101830.88;5058731;28;45299;-53
2021/08/31 04:37:37;;;;;;;;;9.50;9.50;;;;;22.43;50.58;101829.16;5059052;28;45459;-50
2021/08/31 04:40:02;;;;;;;;;9.00;8.50;;;;;22.43;50.59;101829.16;5058470;28;45586;-54
2021/08/31 04:42:28;;;;;;;;;8.50;8.50;;;;;22.41;50.52;101829.25;5058460;28;45296;-50
2021/08/31 04:44:53;;;;;;;;;9.00;9.00;;;;;22.42;50.57;101827.44;5058317;28;45458;-55
2021/08/31 04:47:19;;;;;;;;;10.00;9.00;;;;;22.41;50.56;101831.88;5059065;28;45244;-53
2021/08/31 04:49:45;;;;;;;;;9.25;7.50;;;;;22.41;50.48;101826.59;5058688;28;46540;-54
2021/08/31 04:52:10;;;;;;;;;14.25;10.25;;;;;22.41;50.72;101826.59;5058476;28;45384;-52
2021/08/31 04:54:36;;;;;;;;;8.75;8.75;;;;;22.42;50.45;101830.09;5058501;28;45941;-62
2021/08/31 04:57:01;;;;;;;;;5.00;5.00;;;;;22.42;50.71;101833.59;5058594;28;45386;-61
2021/08/31 04:59:27;;;;;;;;;9.75;8.00;;;;;22.41;50.60;101820.44;5057991;28;46190;-62
2021/08/31 05:01:52;;;;;;;;;9.75;9.75;;;;;22.42;50.55;101835.38;5058143;28;45265;-61
2021/08/31 05:04:18;;;;;;;;;10.75;9.25;;;;;22.41;50.69;101829.25;5058763;28;45631;-56
2021/08/31 05:06:44;;;;;;;;;10.25;8.50;;;;;22.42;50.70;101836.25;5058371;28;45213;-54
2021/08/31 05:09:09;;;;;;;;;8.50;8.00;;;;;22.39;50.71;101831.06;5057882;28;45374;-56
2021/08/31 05:11:35;;;;;;;;;11.00;9.50;;;;;22.42;50.65;101833.59;5057965;28;45320;-58
2021/08/31 05:14:00;;;;;;;;;7.00;7.00;;;;;22.42;50.70;101825.69;5058229;28;45286;-52
2021/08/31 05:16:26;;;;;;;;;10.00;8.25;;;;;22.42;50.67;101838.00;5058432;28;45544;-52
2021/08/31 05:18:51;;;;;;;;;10.25;8.25;;;;;22.43;50.67;101835.31;5058312;28;46088;-52
2021/08/31 05:21:17;;;;;;;;;9.75;9.25;;;;;22.43;50.76;101837.94;5058370;28;45399;-52
2021/08/31 05:23:42;;;;;;;;;9.00;9.00;;;;;22.42;50.99;101841.53;5039835;28;45375;-54
2021/08/31 05:26:07;;;;;;;;;11.00;8.75;;;;;22.43;50.72;101845.88;5057879;28;45329;-55
2021/08/31 05:28:33;;;;;;;;;12.75;10.00;;;;;22.43;50.80;101845.00;5057281;28;46091;-55
2021/08/31 05:30:58;;;;;;;;;13.50;11.00;;;;;22.42;50.74;101844.16;5057690;28;45396;-50
2021/08/31 05:33:23;;;;;;;;;8.50;8.50;;;;;22.42;50.81;101851.22;5057836;28;45324;-48
2021/08/31 05:35:49;;;;;;;;;14.00;10.25;;;;;22.42;50.81;101846.81;5058128;28;45478;-51
2021/08/31 05:38:14;;;;;;;;;12.50;9.75;;;;;22.41;50.91;101847.72;5057541;28;46399;-52
2021/08/31 05:40:40;;;;;;;;;11.00;9.00;;;;;22.42;50.80;101844.16;5057687;28;45335;-53
2021/08/31 05:43:05;;;;;;;;;11.50;10.00;;;;;22.42;50.85;101848.56;5057754;28;45317;-49
2021/08/31 05:45:32;;;;;;;;;9.50;9.00;;;;;22.42;50.77;101851.22;5057625;28;45446;-51
2021/08/31 05:47:57;;;;;;;;;13.75;9.00;;;;;22.40;50.86;101848.63;5057300;28;47211;-53
2021/08/31 05:50:23;;;;;;;;;11.75;10.00;;;;;22.42;50.75;101846.81;5039847;28;46052;-51
2021/08/31 05:52:48;;;;;;;;;14.50;11.00;;;;;22.41;50.83;101858.28;5057864;28;45293;-51
2021/08/31 05:55:13;;;;;;;;;14.25;12.50;;;;;22.42;50.91;101859.13;5057711;28;45293;-51
2021/08/31 05:57:40;;;;;;;;;10.00;10.00;;;;;22.41;50.94;101858.28;5057260;28;46150;-49
2021/08/31 06:00:07;;;;;;;;;10.25;9.75;;;;;22.42;50.86;101867.94;5057071;28;45448;-51
2021/08/31 06:02:33;;;;;;;;;10.00;9.00;;;;;22.42;50.83;101870.56;5057227;28;45475;-49
2021/08/31 06:04:58;;;;;;;;;9.50;9.50;;;;;22.42;50.79;101861.78;5057357;28;45391;-57
2021/08/31 06:07:26;;;;;;;;;14.75;10.25;;;;;22.42;50.85;101859.13;5057208;28;45528;-54
2021/08/31 06:09:51;;;;;;;;;9.50;9.50;;;;;22.41;50.92;101862.72;5057433;28;45445;-54
2021/08/31 06:12:17;;;;;;;;;11.75;9.00;;;;;22.41;50.86;101876.78;5022566;28;45335;-53
2021/08/31 06:14:42;;;;;;;;;10.00;10.00;;;;;22.41;51.14;101871.50;5057327;28;45649;-54
2021/08/31 06:17:08;;;;;;;;;12.25;10.50;;;;;22.43;51.03;101869.66;5056762;28;45364;-52
2021/08/31 06:19:34;;;;;;;;;12.25;10.75;;;;;22.43;50.98;101882.88;5057046;28;45241;-58
2021/08/31 06:22:00;;;;;;;;;11.25;11.25;;;;;22.43;50.99;101877.56;5057169;28;45251;-56
2021/08/31 06:24:25;;;;;;;;;11.75;10.75;;;;;22.43;50.86;101872.28;5057197;28;45509;-54
2021/08/31 06:26:51;;;;;;;;;14.75;9.75;;;;;22.44;51.18;101873.97;5057119;28;45396;-56
2021/08/31 06:29:16;;;;;;;;;11.25;11.25;;;;;22.45;51.44;101883.63;5056922;28;45332;-56
2021/08/31 06:31:41;;;;;;;;;12.75;10.50;;;;;22.46;51.17;101882.69;5056939;28;45275;-55
2021/08/31 06:34:07;;;;;;;;;12.75;11.00;;;;;22.45;51.04;101870.41;5057157;28;45373;-56
2021/08/31 06:36:32;;;;;;;;;12.00;11.75;;;;;22.46;51.18;101885.34;5056717;28;45474;-57
2021/08/31 06:38:58;;;;;;;;;13.25;10.25;;;;;22.47;51.30;101875.63;5056640;28;45442;-58
2021/08/31 06:41:23;;;;;;;;;14.25;13.00;;;;;22.47;51.08;101878.28;5038399;28;45667;-60
2021/08/31 06:43:48;;;;;;;;;14.50;10.75;;;;;22.47;51.15;101879.13;5056976;28;45441;-67
2021/08/31 06:46:14;;;;;;;;;13.25;12.25;;;;;22.50;51.33;101888.69;5056495;28;45411;-65
2021/08/31 06:48:44;;;;;;;;;12.75;12.75;;;;;22.52;51.20;101879.78;5056586;28;45359;-54
2021/08/31 06:51:11;;;;;;;;;13.00;11.50;;;;;22.49;51.36;101874.63;5056733;28;45186;-55
2021/08/31 06:53:38;;;;;;;;;16.25;14.50;;;;;22.54;51.36;101879.69;5056664;28;45587;-52
2021/08/31 06:56:03;;;;;;;;;15.00;12.25;;;;;22.53;51.34;101876.22;5056310;28;45487;-48
2021/08/31 06:58:28;;;;;;;;;17.75;14.50;;;;;22.57;51.41;101883.97;5056240;28;45361;-48
2021/08/31 07:00:54;;;;;;;;;10.00;10.00;;;;;22.59;51.35;101882.13;5057006;28;45495;-50
2021/08/31 07:03:19;;;;;;;;;12.25;11.75;;;;;22.59;51.34;101882.13;5056955;28;45284;-47
2021/08/31 07:05:44;;;;;;;;;11.75;9.00;;;;;22.60;51.62;101883.84;5056309;28;46198;-47
2021/08/31 07:08:10;;;;;;;;;18.25;13.75;;;;;22.61;51.55;101883.75;5056376;28;45528;-51
2021/08/31 07:10:35;;;;;;;;;20.75;12.75;;;;;22.63;51.79;101886.34;5056571;28;45340;-60
2021/08/31 07:13:01;;;;;;;;;13.50;12.75;;;;;22.65;51.66;101887.13;5056608;28;45304;-53
2021/08/31 07:15:26;;;;;;;;;13.25;12.50;;;;;22.66;51.50;101886.16;5056612;28;46191;-49
2021/08/31 07:17:51;;;;;;;;;16.25;13.00;;;;;22.67;51.38;101891.41;5056313;28;45392;-47
2021/08/31 07:20:17;;;;;;;;;17.25;14.50;;;;;22.67;51.61;101882.59;5056362;28;45435;-48
2021/08/31 07:22:42;;;;;;;;;16.50;11.25;;;;;22.71;51.68;101889.47;5056594;28;45336;-50
2021/08/31 07:25:08;;;;;;;;;13.50;12.25;;;;;22.72;51.72;101890.31;5055871;28;50575;-49
2021/08/31 07:27:33;;;;;;;;;21.00;15.00;;;;;22.74;51.65;101881.41;5056120;28;45283;-47
2021/08/31 07:29:59;;;;;;;;;13.50;12.75;;;;;22.77;51.61;101890.94;5056384;28;45301;-49
2021/08/31 07:32:24;;;;;;;;;15.00;12.25;;;;;22.77;51.69;101888.31;5056801;28;45370;-48
2021/08/31 07:34:50;;;;;;;;;15.00;13.50;;;;;22.78;51.68;101885.59;5055976;28;46498;-54
2021/08/31 07:37:15;;;;;;;;;14.75;12.00;;;;;22.80;51.52;101883.72;5054768;28;45332;-50
2021/08/31 07:39:42;;;;;;;;;13.25;13.00;;;;;22.81;51.48;101888.09;5056270;28;45297;-48
2021/08/31 07:42:08;;;;;;;;;11.75;11.75;;;;;22.80;51.27;101894.31;5056218;28;45559;-47
2021/08/31 07:44:33;;;;;;;;;15.00;12.75;;;;;22.79;51.33;101889.94;5055754;28;46431;-48
2021/08/31 07:46:58;;;;;;;;;12.75;11.50;;;;;22.79;51.40;101891.75;5056071;28;45324;-49
2021/08/31 07:49:24;;;;;;;;;15.50;12.50;;;;;22.78;51.13;101893.50;5037950;28;45347;-48
2021/08/31 07:51:49;;;;;;;;;15.00;12.75;;;;;22.77;51.39;101891.78;5057190;28;46011;-50
2021/08/31 07:54:15;;;;;;;;;17.25;14.25;;;;;22.76;51.26;101895.41;5059192;28;45480;-56
2021/08/31 07:56:41;;;;;;;;;15.00;15.00;;;;;22.75;50.98;101895.44;5059266;28;45311;-55
2021/08/31 07:59:07;;;;;;;;;18.25;16.00;;;;;22.74;51.06;101897.25;5059298;28;45515;-53
2021/08/31 08:01:32;;;;;;;;;14.25;12.75;;;;;22.73;51.42;101897.31;5059473;28;45462;-52
2021/08/31 08:03:58;;;;;;;;;15.00;13.00;;;;;22.71;51.16;101905.31;5059367;28;46342;-51
2021/08/31 08:06:24;;;;;;;;;15.50;14.00;;;;;22.73;51.27;101905.22;5058934;28;45369;-50
2021/08/31 08:08:50;;;;;;;;;17.50;15.00;;;;;22.73;51.45;101903.47;5059352;28;45466;-48
2021/08/31 08:11:15;;;;;;;;;17.25;13.50;;;;;22.74;51.26;101906.94;5059491;28;45588;-52
2021/08/31 08:13:41;;;;;;;;;17.25;13.75;;;;;22.75;51.38;101908.66;5059102;28;45301;-47
2021/08/31 08:16:06;;;;;;;;;18.75;15.50;;;;;22.76;51.00;101910.38;5058955;28;45245;-59
2021/08/31 08:18:31;;;;;;;;;17.25;14.25;;;;;22.79;51.57;101923.47;5058923;28;45320;-46
2021/08/31 08:20:57;;;;;;;;;18.25;16.25;;;;;22.82;51.48;101920.69;5059721;28;45511;-46
2021/08/31 08:23:23;;;;;;;;;15.00;13.25;;;;;22.84;51.21;101924.94;5040613;28;47356;-50
2021/08/31 08:25:49;;;;;;;;;16.75;13.75;;;;;22.87;51.29;101920.44;5058689;28;45422;-50
2021/08/31 08:28:15;;;;;;;;;14.50;12.75;;;;;22.89;51.34;101922.09;5058807;28;45447;-48
2021/08/31 08:30:41;;;;;;;;;15.75;14.75;;;;;22.90;51.15;101926.44;5059006;28;46002;-52
2021/08/31 08:33:06;;;;;;;;;13.75;12.75;;;;;22.92;51.00;101926.34;5058636;28;46338;-63
2021/08/31 08:35:32;;;;;;;;;20.50;15.50;;;;;22.92;51.20;101923.72;5058552;28;45293;-54
2021/08/31 08:37:58;;;;;;;;;17.50;15.50;;;;;22.93;50.73;101928.06;5059035;28;45832;-68
2021/08/31 08:40:25;;;;;;;;;17.00;15.75;;;;;22.93;51.00;101928.91;5059192;28;45614;-64
2021/08/31 08:42:52;;;;;;;;;17.50;16.00;;;;;22.93;50.48;101920.97;5058470;28;45312;-61
2021/08/31 08:45:18;;;;;;;;;22.50;15.75;;;;;22.93;50.91;101918.34;5058466;28;45268;-51
2021/08/31 08:47:44;;;;;;;;;19.25;17.25;;;;;22.92;50.80;101926.34;5058731;28;45396;-51
2021/08/31 08:50:10;;;;;;;;;19.50;15.00;;;;;22.93;50.49;101925.44;5058774;28;45410;-54
2021/08/31 08:52:35;;;;;;;;;16.00;16.00;;;;;22.93;50.47;101934.19;5058325;28;45389;-53
2021/08/31 08:55:01;;;;;;;;;17.00;14.25;;;;;22.92;50.33;101931.66;5058551;28;45319;-51
2021/08/31 08:57:31;;;;;;;;;18.50;15.00;;;;;22.91;50.21;101932.56;5058538;28;45344;-52
2021/08/31 08:59:57;;;;;;;;;23.75;19.50;;;;;22.90;49.98;101933.50;5058439;28;45368;-51
2021/08/31 09:02:38;;;;;;;;;20.00;16.00;;;;;22.85;49.83;101931.94;5058125;28;46251;-52
2021/08/31 09:05:05;;;;;;;;;23.75;17.25;;;;;22.86;49.81;101946.00;5057615;28;45282;-53
2021/08/31 09:07:36;;;;;;;;;17.75;16.75;;;;;22.83;49.91;101939.09;5058647;28;45338;-54
2021/08/31 09:10:25;;;;;;;;;19.25;17.75;;;;;22.82;49.71;101931.25;5058714;28;45358;-58
2021/08/31 09:12:52;;;;;;;;;19.25;18.50;;;;;22.82;49.80;101941.81;5058080;28;45360;-50
2021/08/31 09:15:26;;;;;;;;;19.50;17.75;;;;;22.79;49.52;101932.22;5058116;28;45673;-57
2021/08/31 09:18:11;;;;;;;;;20.75;17.50;;;;;22.77;49.82;101933.25;5058249;28;45169;-55
2021/08/31 09:20:39;;;;;;;;;18.50;17.25;;;;;22.78;49.68;101938.44;5058293;28;45304;-57
2021/08/31 09:23:08;;;;;;;;;21.00;17.25;;;;;22.77;49.53;101939.38;5057824;28;45600;-51
2021/08/31 09:25:39;;;;;;;;;20.00;18.75;;;;;22.72;49.34;101933.47;5058350;28;45820;-52
2021/08/31 09:28:23;;;;;;;;;19.25;18.75;;;;;22.75;49.46;101945.66;5058336;28;45372;-56
2021/08/31 09:31:28;;;;;;;;;18.25;18.25;;;;;22.72;49.52;101940.50;5058640;28;45317;-58
2021/08/31 09:33:56;;;;;;;;;19.25;17.00;;;;;22.69;49.14;101942.41;5052065;28;46243;-53
2021/08/31 09:36:24;;;;;;;;;21.00;18.25;;;;;22.68;49.52;101948.63;5057745;28;45267;-51
2021/08/31 09:38:52;;;;;;;;;26.50;22.00;;;;;22.67;49.60;101946.03;5057867;28;45270;-52
2021/08/31 09:41:45;;;;;;;;;24.00;17.50;;;;;22.66;49.61;101944.31;5057868;28;45445;-55
2021/08/31 09:44:24;;;;;;;;;21.00;19.25;;;;;22.65;49.47;101942.63;5054725;28;45474;-51
2021/08/31 09:46:53;;;;;;;;;22.25;19.50;;;;;22.64;49.59;101938.25;5057613;28;45905;-57
2021/08/31 09:49:21;;;;;;;;;21.00;19.50;;;;;22.61;49.21;101939.22;5057661;28;45249;-53
2021/08/31 09:52:04;;;;;;;;;21.75;18.50;;;;;22.62;49.28;101942.75;5057842;28;45167;-51
2021/08/31 09:54:30;;;;;;;;;24.75;22.50;;;;;22.59;48.99;101945.53;5057288;28;45689;-55
2021/08/31 09:56:55;;;;;;;;;21.75;19.50;;;;;22.58;49.33;101946.44;5057295;28;45750;-53
2021/08/31 09:59:23;;;;;;;;;19.00;18.00;;;;;22.59;49.40;101941.13;5057223;28;45479;-58
2021/08/31 10:01:52;;;;;;;;;18.50;15.75;;;;;22.59;49.22;101942.88;5057552;28;45383;-56
2021/08/31 10:04:17;;;;;;;;;20.50;14.75;;;;;22.60;49.29;101947.25;5057112;28;46581;-53
2021/08/31 10:06:43;;;;;;;;;20.75;19.25;;;;;22.60;49.15;101949.88;5057079;28;45240;-58
2021/08/31 10:09:09;;;;;;;;;20.50;19.25;;;;;22.59;49.25;101946.41;5057314;28;45361;-55
2021/08/31 10:11:34;;;;;;;;;21.25;19.50;;;;;22.60;49.17;101942.81;5057722;28;45234;-59
2021/08/31 10:14:01;;;;;;;;;26.25;21.25;;;;;22.61;49.03;101944.53;5057125;28;46434;-56
2021/08/31 10:16:26;;;;;;;;;23.75;20.75;;;;;22.62;49.09;101946.25;5056067;28;45971;-58
2021/08/31 10:18:53;;;;;;;;;12.25;12.25;;;;;22.62;48.97;101948.88;5057245;28;45351;-57
2021/08/31 10:21:19;;;;;;;;;20.50;19.00;;;;;22.63;49.20;101947.94;5056181;28;45505;-60
2021/08/31 10:23:47;;;;;;;;;23.25;18.50;;;;;22.63;48.81;101942.66;5057013;28;45499;-60
2021/08/31 10:26:29;;;;;;;;;21.75;18.00;;;;;22.65;48.98;101940.81;5055584;28;45410;-60
2021/08/31 10:29:13;;;;;;;;;16.50;16.50;;;;;22.67;49.10;101938.97;5057147;28;45481;-62
2021/08/31 10:31:43;;;;;;;;;22.50;18.25;;;;;22.66;48.87;101939.88;5057207;28;45534;-63
2021/08/31 10:34:30;;;;;;;;;21.50;18.25;;;;;22.69;48.97;101947.69;5056669;28;46285;-56
2021/08/31 10:37:22;;;;;;;;;24.00;20.75;;;;;22.71;48.98;101950.25;5056724;28;45769;-53
2021/08/31 10:39:55;;;;;;;;;25.00;18.75;;;;;22.72;49.47;101953.72;5053898;28;45386;-51
2021/08/31 10:42:26;;;;;;;;;21.00;18.25;;;;;22.73;48.95;101961.59;5057064;28;45400;-54
2021/08/31 10:45:00;;;;;;;;;24.00;23.00;;;;;22.74;49.06;101954.53;5056596;28;46434;-57
2021/08/31 10:47:31;;;;;;;;;23.25;20.50;;;;;22.74;49.05;101950.09;5056696;28;45938;-52
2021/08/31 10:49:56;;;;;;;;;25.75;22.25;;;;;22.76;48.77;101947.38;5056791;28;45400;-53
2021/08/31 10:52:41;;;;;;;;;21.50;19.50;;;;;22.76;48.87;101952.66;5056959;28;45339;-54
2021/08/31 10:55:31;;;;;;;;;22.50;21.50;;;;;22.75;49.04;101954.47;5038762;28;46374;-56
2021/08/31 10:57:59;;;;;;;;;23.25;21.25;;;;;22.75;48.71;101953.59;5049146;28;45269;-50
2021/08/31 11:00:25;;;;;;;;;20.25;19.50;;;;;22.75;48.96;101948.31;5056395;28;45370;-50
2021/08/31 11:02:52;;;;;;;;;21.50;20.50;;;;;22.75;49.02;101946.53;5056670;28;45353;-49
2021/08/31 11:05:17;;;;;;;;;23.50;21.75;;;;;22.74;48.79;101942.19;5056124;28;47399;-50
2021/08/31 11:07:43;;;;;;;;;22.00;20.00;;;;;22.74;48.89;101941.31;5056510;28;45435;-46
2021/08/31 11:10:09;;;;;;;;;21.25;19.50;;;;;22.74;48.73;101944.81;5056538;28;45391;-49
2021/08/31 11:12:34;;;;;;;;;24.50;20.25;;;;;22.72;48.77;101941.38;5056861;28;45170;-55